sensor_id;sensor_type;location;lat;lon;timestamp;P1;durP1;ratioP1;P2;durP2;ratioP2
23952;SDS011;12163;49.316;6.092;2023-05-19T00:01:47;14.27;;;3.95;;
23952;SDS011;12163;49.316;6.092;2023-05-19T00:04:14;14.23;;;3.88;;
23952;SDS011;12163;49.316;6.092;2023-05-19T00:06:42;10.93;;;3.35;;
23952;SDS011;12163;49.316;6.092;2023-05-19T00:09:10;11.88;;;3.50;;
23952;SDS011;12163;49.316;6.092;2023-05-19T00:11:38;18.40;;;3.50;;
23952;SDS011;12163;49.316;6.092;2023-05-19T00:14:05;14.48;;;4.10;;
23952;SDS011;12163;49.316;6.092;2023-05-19T00:16:32;14.13;;;3.90;;
23952;SDS011;12163;49.316;6.092;2023-05-19T00:19:00;15.45;;;4.80;;
23952;SDS011;12163;49.316;6.092;2023-05-19T00:21:27;16.33;;;4.28;;
23952;SDS011;12163;49.316;6.092;2023-05-19T00:23:54;14.38;;;4.30;;
23952;SDS011;12163;49.316;6.092;2023-05-19T00:26:20;12.30;;;4.10;;
23952;SDS011;12163;49.316;6.092;2023-05-19T00:28:48;16.90;;;4.05;;
23952;SDS011;12163;49.316;6.092;2023-05-19T00:31:14;10.45;;;3.30;;
23952;SDS011;12163;49.316;6.092;2023-05-19T00:33:41;12.82;;;3.65;;
23952;SDS011;12163;49.316;6.092;2023-05-19T00:36:08;15.23;;;3.65;;
23952;SDS011;12163;49.316;6.092;2023-05-19T00:38:34;12.27;;;4.10;;
23952;SDS011;12163;49.316;6.092;2023-05-19T00:41:02;11.95;;;3.67;;
23952;SDS011;12163;49.316;6.092;2023-05-19T00:43:29;12.43;;;3.58;;
23952;SDS011;12163;49.316;6.092;2023-05-19T00:45:55;10.43;;;3.42;;
23952;SDS011;12163;49.316;6.092;2023-05-19T00:48:23;11.32;;;3.17;;
23952;SDS011;12163;49.316;6.092;2023-05-19T00:50:50;13.45;;;4.03;;
23952;SDS011;12163;49.316;6.092;2023-05-19T00:53:17;14.75;;;4.32;;
23952;SDS011;12163;49.316;6.092;2023-05-19T00:55:44;15.43;;;3.80;;
23952;SDS011;12163;49.316;6.092;2023-05-19T00:58:11;15.07;;;3.88;;
23952;SDS011;12163;49.316;6.092;2023-05-19T01:00:39;10.65;;;4.15;;
23952;SDS011;12163;49.316;6.092;2023-05-19T01:03:06;10.63;;;3.53;;
23952;SDS011;12163;49.316;6.092;2023-05-19T01:05:38;12.52;;;3.58;;
23952;SDS011;12163;49.316;6.092;2023-05-19T01:08:07;12.75;;;4.18;;
23952;SDS011;12163;49.316;6.092;2023-05-19T01:10:34;17.60;;;4.10;;
23952;SDS011;12163;49.316;6.092;2023-05-19T01:13:03;13.60;;;3.85;;
23952;SDS011;12163;49.316;6.092;2023-05-19T01:15:32;17.15;;;3.92;;
23952;SDS011;12163;49.316;6.092;2023-05-19T01:18:04;11.38;;;3.58;;
23952;SDS011;12163;49.316;6.092;2023-05-19T01:20:57;12.73;;;3.55;;
23952;SDS011;12163;49.316;6.092;2023-05-19T01:28:37;10.95;;;3.20;;
23952;SDS011;12163;49.316;6.092;2023-05-19T01:31:06;16.60;;;3.47;;
23952;SDS011;12163;49.316;6.092;2023-05-19T01:33:35;12.15;;;3.33;;
23952;SDS011;12163;49.316;6.092;2023-05-19T01:36:02;13.30;;;3.78;;
23952;SDS011;12163;49.316;6.092;2023-05-19T01:38:30;12.57;;;4.22;;
23952;SDS011;12163;49.316;6.092;2023-05-19T01:40:59;15.50;;;3.97;;
23952;SDS011;12163;49.316;6.092;2023-05-19T01:43:26;13.80;;;3.50;;
23952;SDS011;12163;49.316;6.092;2023-05-19T01:45:53;14.60;;;3.80;;
23952;SDS011;12163;49.316;6.092;2023-05-19T01:48:20;12.88;;;3.15;;
23952;SDS011;12163;49.316;6.092;2023-05-19T01:50:47;11.00;;;3.63;;
23952;SDS011;12163;49.316;6.092;2023-05-19T01:53:14;18.38;;;4.13;;
23952;SDS011;12163;49.316;6.092;2023-05-19T01:55:42;13.77;;;3.53;;
23952;SDS011;12163;49.316;6.092;2023-05-19T02:00:52;11.50;;;3.72;;
23952;SDS011;12163;49.316;6.092;2023-05-19T02:03:36;9.18;;;3.85;;
23952;SDS011;12163;49.316;6.092;2023-05-19T02:11:37;13.35;;;4.10;;
23952;SDS011;12163;49.316;6.092;2023-05-19T02:14:07;16.05;;;3.85;;
23952;SDS011;12163;49.316;6.092;2023-05-19T02:16:33;14.90;;;4.10;;
23952;SDS011;12163;49.316;6.092;2023-05-19T02:19:01;14.30;;;4.03;;
23952;SDS011;12163;49.316;6.092;2023-05-19T02:21:28;16.88;;;4.53;;
23952;SDS011;12163;49.316;6.092;2023-05-19T02:23:54;18.25;;;4.53;;
23952;SDS011;12163;49.316;6.092;2023-05-19T02:26:21;21.42;;;4.60;;
23952;SDS011;12163;49.316;6.092;2023-05-19T02:28:47;11.38;;;4.22;;
23952;SDS011;12163;49.316;6.092;2023-05-19T02:31:14;14.93;;;4.68;;
23952;SDS011;12163;49.316;6.092;2023-05-19T02:33:40;15.30;;;4.88;;
23952;SDS011;12163;49.316;6.092;2023-05-19T02:36:08;10.20;;;3.97;;
23952;SDS011;12163;49.316;6.092;2023-05-19T02:38:35;11.80;;;3.80;;
23952;SDS011;12163;49.316;6.092;2023-05-19T02:41:02;9.43;;;3.15;;
23952;SDS011;12163;49.316;6.092;2023-05-19T02:43:28;14.27;;;3.78;;
23952;SDS011;12163;49.316;6.092;2023-05-19T02:45:55;13.60;;;4.13;;
23952;SDS011;12163;49.316;6.092;2023-05-19T02:48:22;21.42;;;5.03;;
23952;SDS011;12163;49.316;6.092;2023-05-19T02:50:49;16.08;;;4.90;;
23952;SDS011;12163;49.316;6.092;2023-05-19T02:53:15;20.17;;;4.90;;
23952;SDS011;12163;49.316;6.092;2023-05-19T02:55:41;14.68;;;4.43;;
23952;SDS011;12163;49.316;6.092;2023-05-19T02:58:08;15.75;;;5.03;;
23952;SDS011;12163;49.316;6.092;2023-05-19T03:00:34;15.50;;;4.40;;
23952;SDS011;12163;49.316;6.092;2023-05-19T03:03:01;15.25;;;3.83;;
23952;SDS011;12163;49.316;6.092;2023-05-19T03:05:28;17.27;;;4.35;;
23952;SDS011;12163;49.316;6.092;2023-05-19T03:07:55;12.88;;;3.53;;
23952;SDS011;12163;49.316;6.092;2023-05-19T03:10:22;15.00;;;4.53;;
23952;SDS011;12163;49.316;6.092;2023-05-19T03:12:48;13.77;;;4.22;;
23952;SDS011;12163;49.316;6.092;2023-05-19T03:15:15;15.30;;;4.68;;
23952;SDS011;12163;49.316;6.092;2023-05-19T03:17:41;15.85;;;4.72;;
23952;SDS011;12163;49.316;6.092;2023-05-19T03:20:08;12.20;;;3.70;;
23952;SDS011;12163;49.316;6.092;2023-05-19T03:22:37;13.07;;;4.30;;
23952;SDS011;12163;49.316;6.092;2023-05-19T03:25:03;15.38;;;3.72;;
23952;SDS011;12163;49.316;6.092;2023-05-19T03:27:30;15.57;;;3.83;;
23952;SDS011;12163;49.316;6.092;2023-05-19T03:29:56;15.93;;;3.50;;
23952;SDS011;12163;49.316;6.092;2023-05-19T03:32:23;12.25;;;3.58;;
23952;SDS011;12163;49.316;6.092;2023-05-19T03:34:49;8.38;;;3.05;;
23952;SDS011;12163;49.316;6.092;2023-05-19T03:37:16;10.82;;;3.15;;
23952;SDS011;12163;49.316;6.092;2023-05-19T03:39:42;9.73;;;3.55;;
23952;SDS011;12163;49.316;6.092;2023-05-19T03:42:09;14.48;;;3.60;;
23952;SDS011;12163;49.316;6.092;2023-05-19T03:44:35;8.20;;;2.85;;
23952;SDS011;12163;49.316;6.092;2023-05-19T03:47:02;13.27;;;3.67;;
23952;SDS011;12163;49.316;6.092;2023-05-19T03:49:28;13.88;;;3.30;;
23952;SDS011;12163;49.316;6.092;2023-05-19T03:51:55;8.10;;;2.78;;
23952;SDS011;12163;49.316;6.092;2023-05-19T03:54:21;7.55;;;2.63;;
23952;SDS011;12163;49.316;6.092;2023-05-19T03:56:48;11.05;;;3.10;;
23952;SDS011;12163;49.316;6.092;2023-05-19T03:59:14;9.65;;;3.33;;
23952;SDS011;12163;49.316;6.092;2023-05-19T04:01:41;11.80;;;3.22;;
23952;SDS011;12163;49.316;6.092;2023-05-19T04:04:07;12.25;;;4.20;;
23952;SDS011;12163;49.316;6.092;2023-05-19T04:06:34;13.65;;;3.50;;
23952;SDS011;12163;49.316;6.092;2023-05-19T04:09:01;12.27;;;3.75;;
23952;SDS011;12163;49.316;6.092;2023-05-19T04:11:28;13.18;;;4.00;;
23952;SDS011;12163;49.316;6.092;2023-05-19T04:13:55;10.55;;;3.17;;
23952;SDS011;12163;49.316;6.092;2023-05-19T04:16:21;9.43;;;2.90;;
23952;SDS011;12163;49.316;6.092;2023-05-19T04:18:48;11.90;;;3.05;;
23952;SDS011;12163;49.316;6.092;2023-05-19T04:21:15;13.82;;;3.33;;
23952;SDS011;12163;49.316;6.092;2023-05-19T04:23:41;9.93;;;2.63;;
23952;SDS011;12163;49.316;6.092;2023-05-19T04:26:08;6.40;;;2.50;;
23952;SDS011;12163;49.316;6.092;2023-05-19T04:28:35;10.50;;;3.20;;
23952;SDS011;12163;49.316;6.092;2023-05-19T04:31:05;8.85;;;2.33;;
23952;SDS011;12163;49.316;6.092;2023-05-19T04:33:36;9.77;;;2.40;;
23952;SDS011;12163;49.316;6.092;2023-05-19T04:36:02;13.45;;;3.05;;
23952;SDS011;12163;49.316;6.092;2023-05-19T04:38:33;12.65;;;2.90;;
23952;SDS011;12163;49.316;6.092;2023-05-19T04:41:02;11.20;;;2.90;;
23952;SDS011;12163;49.316;6.092;2023-05-19T04:43:29;11.52;;;3.08;;
23952;SDS011;12163;49.316;6.092;2023-05-19T04:45:56;9.35;;;2.80;;
23952;SDS011;12163;49.316;6.092;2023-05-19T04:48:23;18.92;;;2.90;;
23952;SDS011;12163;49.316;6.092;2023-05-19T04:50:50;10.68;;;2.70;;
23952;SDS011;12163;49.316;6.092;2023-05-19T04:53:17;9.88;;;3.03;;
23952;SDS011;12163;49.316;6.092;2023-05-19T04:55:43;8.30;;;2.85;;
23952;SDS011;12163;49.316;6.092;2023-05-19T04:58:10;13.70;;;2.90;;
23952;SDS011;12163;49.316;6.092;2023-05-19T05:00:36;7.82;;;2.47;;
23952;SDS011;12163;49.316;6.092;2023-05-19T05:03:03;11.73;;;2.72;;
23952;SDS011;12163;49.316;6.092;2023-05-19T05:05:33;11.13;;;2.72;;
23952;SDS011;12163;49.316;6.092;2023-05-19T05:08:00;9.95;;;3.03;;
23952;SDS011;12163;49.316;6.092;2023-05-19T05:10:26;12.40;;;2.63;;
23952;SDS011;12163;49.316;6.092;2023-05-19T05:12:53;15.50;;;2.70;;
23952;SDS011;12163;49.316;6.092;2023-05-19T05:15:19;14.93;;;3.03;;
23952;SDS011;12163;49.316;6.092;2023-05-19T05:17:46;7.82;;;2.70;;
23952;SDS011;12163;49.316;6.092;2023-05-19T05:20:13;12.75;;;2.92;;
23952;SDS011;12163;49.316;6.092;2023-05-19T05:22:40;11.15;;;2.92;;
23952;SDS011;12163;49.316;6.092;2023-05-19T05:25:07;17.00;;;2.58;;
23952;SDS011;12163;49.316;6.092;2023-05-19T05:27:34;12.13;;;2.88;;
23952;SDS011;12163;49.316;6.092;2023-05-19T05:30:01;14.60;;;3.15;;
23952;SDS011;12163;49.316;6.092;2023-05-19T05:32:28;14.20;;;3.25;;
23952;SDS011;12163;49.316;6.092;2023-05-19T05:34:55;14.40;;;3.20;;
23952;SDS011;12163;49.316;6.092;2023-05-19T05:37:21;14.80;;;3.10;;
23952;SDS011;12163;49.316;6.092;2023-05-19T05:39:48;13.85;;;2.80;;
23952;SDS011;12163;49.316;6.092;2023-05-19T05:42:14;7.15;;;2.50;;
23952;SDS011;12163;49.316;6.092;2023-05-19T05:44:41;16.35;;;2.70;;
23952;SDS011;12163;49.316;6.092;2023-05-19T05:47:07;15.63;;;2.72;;
23952;SDS011;12163;49.316;6.092;2023-05-19T05:49:34;12.30;;;2.70;;
23952;SDS011;12163;49.316;6.092;2023-05-19T05:52:03;15.57;;;2.90;;
23952;SDS011;12163;49.316;6.092;2023-05-19T05:54:32;9.10;;;2.40;;
23952;SDS011;12163;49.316;6.092;2023-05-19T05:56:59;15.63;;;2.83;;
23952;SDS011;12163;49.316;6.092;2023-05-19T05:59:25;19.35;;;2.90;;
23952;SDS011;12163;49.316;6.092;2023-05-19T06:01:52;13.63;;;3.03;;
23952;SDS011;12163;49.316;6.092;2023-05-19T06:04:19;20.88;;;3.00;;
23952;SDS011;12163;49.316;6.092;2023-05-19T06:06:46;20.42;;;2.88;;
23952;SDS011;12163;49.316;6.092;2023-05-19T06:09:13;16.20;;;3.08;;
23952;SDS011;12163;49.316;6.092;2023-05-19T06:11:39;17.40;;;2.50;;
23952;SDS011;12163;49.316;6.092;2023-05-19T06:14:06;11.65;;;2.13;;
23952;SDS011;12163;49.316;6.092;2023-05-19T06:16:32;13.85;;;2.58;;
23952;SDS011;12163;49.316;6.092;2023-05-19T06:18:59;10.98;;;2.33;;
23952;SDS011;12163;49.316;6.092;2023-05-19T06:21:25;10.75;;;2.40;;
23952;SDS011;12163;49.316;6.092;2023-05-19T06:23:52;10.15;;;2.42;;
23952;SDS011;12163;49.316;6.092;2023-05-19T06:26:18;11.90;;;2.75;;
23952;SDS011;12163;49.316;6.092;2023-05-19T06:28:46;10.85;;;2.35;;
23952;SDS011;12163;49.316;6.092;2023-05-19T06:31:12;9.43;;;2.35;;
23952;SDS011;12163;49.316;6.092;2023-05-19T06:33:39;13.68;;;2.10;;
23952;SDS011;12163;49.316;6.092;2023-05-19T06:36:05;11.48;;;2.67;;
23952;SDS011;12163;49.316;6.092;2023-05-19T06:38:33;13.43;;;2.20;;
23952;SDS011;12163;49.316;6.092;2023-05-19T06:41:00;15.85;;;2.45;;
23952;SDS011;12163;49.316;6.092;2023-05-19T06:43:26;12.52;;;2.30;;
23952;SDS011;12163;49.316;6.092;2023-05-19T06:45:53;10.57;;;2.60;;
23952;SDS011;12163;49.316;6.092;2023-05-19T06:48:20;11.90;;;2.50;;
23952;SDS011;12163;49.316;6.092;2023-05-19T06:50:47;11.48;;;2.22;;
23952;SDS011;12163;49.316;6.092;2023-05-19T06:53:15;7.93;;;2.40;;
23952;SDS011;12163;49.316;6.092;2023-05-19T06:55:42;11.70;;;2.67;;
23952;SDS011;12163;49.316;6.092;2023-05-19T06:58:23;11.02;;;2.15;;
23952;SDS011;12163;49.316;6.092;2023-05-19T07:00:50;6.95;;;2.03;;
23952;SDS011;12163;49.316;6.092;2023-05-19T07:03:16;6.25;;;2.00;;
23952;SDS011;12163;49.316;6.092;2023-05-19T07:05:43;8.23;;;2.20;;
23952;SDS011;12163;49.316;6.092;2023-05-19T07:08:09;8.30;;;1.90;;
23952;SDS011;12163;49.316;6.092;2023-05-19T07:10:36;8.98;;;2.05;;
23952;SDS011;12163;49.316;6.092;2023-05-19T07:13:02;16.92;;;2.38;;
23952;SDS011;12163;49.316;6.092;2023-05-19T07:15:29;7.80;;;1.70;;
23952;SDS011;12163;49.316;6.092;2023-05-19T07:17:57;9.23;;;2.15;;
23952;SDS011;12163;49.316;6.092;2023-05-19T07:20:23;6.82;;;1.90;;
23952;SDS011;12163;49.316;6.092;2023-05-19T07:22:50;8.55;;;2.25;;
23952;SDS011;12163;49.316;6.092;2023-05-19T07:25:16;13.98;;;2.22;;
23952;SDS011;12163;49.316;6.092;2023-05-19T07:27:43;9.02;;;2.10;;
23952;SDS011;12163;49.316;6.092;2023-05-19T07:30:11;10.52;;;2.40;;
23952;SDS011;12163;49.316;6.092;2023-05-19T07:32:37;7.95;;;2.20;;
23952;SDS011;12163;49.316;6.092;2023-05-19T07:35:04;9.80;;;2.58;;
23952;SDS011;12163;49.316;6.092;2023-05-19T07:37:31;7.68;;;2.45;;
23952;SDS011;12163;49.316;6.092;2023-05-19T07:39:57;17.75;;;2.60;;
23952;SDS011;12163;49.316;6.092;2023-05-19T07:42:24;4.13;;;1.73;;
23952;SDS011;12163;49.316;6.092;2023-05-19T07:44:50;8.43;;;2.10;;
23952;SDS011;12163;49.316;6.092;2023-05-19T07:47:17;8.68;;;2.50;;
23952;SDS011;12163;49.316;6.092;2023-05-19T07:49:43;6.47;;;1.60;;
23952;SDS011;12163;49.316;6.092;2023-05-19T07:52:10;10.55;;;2.78;;
23952;SDS011;12163;49.316;6.092;2023-05-19T07:54:36;12.48;;;2.00;;
23952;SDS011;12163;49.316;6.092;2023-05-19T07:57:03;6.30;;;2.20;;
23952;SDS011;12163;49.316;6.092;2023-05-19T07:59:30;9.30;;;1.88;;
23952;SDS011;12163;49.316;6.092;2023-05-19T08:01:56;6.10;;;2.15;;
23952;SDS011;12163;49.316;6.092;2023-05-19T08:04:23;8.10;;;2.28;;
23952;SDS011;12163;49.316;6.092;2023-05-19T08:06:50;11.25;;;2.40;;
23952;SDS011;12163;49.316;6.092;2023-05-19T08:09:18;10.05;;;2.47;;
23952;SDS011;12163;49.316;6.092;2023-05-19T08:11:45;7.15;;;2.30;;
23952;SDS011;12163;49.316;6.092;2023-05-19T08:14:15;8.93;;;2.72;;
23952;SDS011;12163;49.316;6.092;2023-05-19T08:16:41;8.85;;;2.60;;
23952;SDS011;12163;49.316;6.092;2023-05-19T08:19:09;15.48;;;2.70;;
23952;SDS011;12163;49.316;6.092;2023-05-19T08:21:35;35.33;;;2.88;;
23952;SDS011;12163;49.316;6.092;2023-05-19T08:24:02;31.05;;;3.20;;
23952;SDS011;12163;49.316;6.092;2023-05-19T08:26:29;13.68;;;2.92;;
23952;SDS011;12163;49.316;6.092;2023-05-19T08:28:56;10.52;;;2.63;;
23952;SDS011;12163;49.316;6.092;2023-05-19T08:31:22;10.48;;;2.63;;
23952;SDS011;12163;49.316;6.092;2023-05-19T08:33:50;14.20;;;2.25;;
23952;SDS011;12163;49.316;6.092;2023-05-19T08:36:16;8.93;;;2.13;;
23952;SDS011;12163;49.316;6.092;2023-05-19T08:38:43;12.48;;;2.67;;
23952;SDS011;12163;49.316;6.092;2023-05-19T08:41:10;9.73;;;2.38;;
23952;SDS011;12163;49.316;6.092;2023-05-19T08:43:36;6.50;;;2.35;;
23952;SDS011;12163;49.316;6.092;2023-05-19T08:46:04;7.82;;;1.85;;
23952;SDS011;12163;49.316;6.092;2023-05-19T08:48:33;11.10;;;2.88;;
23952;SDS011;12163;49.316;6.092;2023-05-19T08:51:23;7.95;;;2.90;;
23952;SDS011;12163;49.316;6.092;2023-05-19T08:53:48;9.52;;;2.55;;
23952;SDS011;12163;49.316;6.092;2023-05-19T08:56:20;6.10;;;2.20;;
23952;SDS011;12163;49.316;6.092;2023-05-19T08:58:48;10.55;;;2.80;;
23952;SDS011;12163;49.316;6.092;2023-05-19T09:01:14;11.80;;;2.72;;
23952;SDS011;12163;49.316;6.092;2023-05-19T09:03:42;6.78;;;2.30;;
23952;SDS011;12163;49.316;6.092;2023-05-19T09:06:10;8.77;;;2.35;;
23952;SDS011;12163;49.316;6.092;2023-05-19T09:08:40;8.05;;;2.30;;
23952;SDS011;12163;49.316;6.092;2023-05-19T09:11:07;8.95;;;2.30;;
23952;SDS011;12163;49.316;6.092;2023-05-19T09:13:34;8.30;;;2.97;;
23952;SDS011;12163;49.316;6.092;2023-05-19T09:16:00;7.78;;;2.35;;
23952;SDS011;12163;49.316;6.092;2023-05-19T09:18:28;9.13;;;2.72;;
23952;SDS011;12163;49.316;6.092;2023-05-19T09:20:58;13.13;;;2.70;;
23952;SDS011;12163;49.316;6.092;2023-05-19T09:23:26;9.23;;;2.95;;
23952;SDS011;12163;49.316;6.092;2023-05-19T09:25:54;7.85;;;2.50;;
23952;SDS011;12163;49.316;6.092;2023-05-19T09:28:24;9.32;;;2.65;;
23952;SDS011;12163;49.316;6.092;2023-05-19T09:31:01;11.07;;;2.63;;
23952;SDS011;12163;49.316;6.092;2023-05-19T09:33:29;10.32;;;2.58;;
23952;SDS011;12163;49.316;6.092;2023-05-19T09:35:56;8.02;;;2.47;;
23952;SDS011;12163;49.316;6.092;2023-05-19T09:38:23;5.53;;;2.22;;
23952;SDS011;12163;49.316;6.092;2023-05-19T09:40:50;11.93;;;2.85;;
23952;SDS011;12163;49.316;6.092;2023-05-19T09:43:17;5.78;;;2.10;;
23952;SDS011;12163;49.316;6.092;2023-05-19T09:45:43;11.50;;;2.80;;
23952;SDS011;12163;49.316;6.092;2023-05-19T09:48:10;11.23;;;2.38;;
23952;SDS011;12163;49.316;6.092;2023-05-19T09:50:37;13.10;;;2.70;;
23952;SDS011;12163;49.316;6.092;2023-05-19T09:53:04;11.82;;;2.63;;
23952;SDS011;12163;49.316;6.092;2023-05-19T09:55:30;10.27;;;2.72;;
23952;SDS011;12163;49.316;6.092;2023-05-19T09:57:59;12.63;;;2.53;;
23952;SDS011;12163;49.316;6.092;2023-05-19T10:00:30;7.93;;;2.63;;
23952;SDS011;12163;49.316;6.092;2023-05-19T10:02:57;9.25;;;2.17;;
23952;SDS011;12163;49.316;6.092;2023-05-19T10:05:25;10.73;;;2.50;;
23952;SDS011;12163;49.316;6.092;2023-05-19T10:07:52;8.45;;;2.47;;
23952;SDS011;12163;49.316;6.092;2023-05-19T10:10:20;5.22;;;2.17;;
23952;SDS011;12163;49.316;6.092;2023-05-19T10:12:47;7.05;;;2.05;;
23952;SDS011;12163;49.316;6.092;2023-05-19T10:15:17;9.30;;;2.60;;
23952;SDS011;12163;49.316;6.092;2023-05-19T10:17:47;8.23;;;2.70;;
23952;SDS011;12163;49.316;6.092;2023-05-19T10:20:16;9.32;;;2.42;;
23952;SDS011;12163;49.316;6.092;2023-05-19T10:22:44;7.82;;;2.25;;
23952;SDS011;12163;49.316;6.092;2023-05-19T10:25:11;10.38;;;2.67;;
23952;SDS011;12163;49.316;6.092;2023-05-19T10:27:45;10.60;;;2.20;;
23952;SDS011;12163;49.316;6.092;2023-05-19T10:30:16;8.75;;;2.53;;
23952;SDS011;12163;49.316;6.092;2023-05-19T10:32:43;11.50;;;2.60;;
23952;SDS011;12163;49.316;6.092;2023-05-19T10:43:01;8.68;;;2.17;;
23952;SDS011;12163;49.316;6.092;2023-05-19T10:45:29;12.55;;;2.75;;
23952;SDS011;12163;49.316;6.092;2023-05-19T10:47:58;8.00;;;2.20;;
23952;SDS011;12163;49.316;6.092;2023-05-19T10:50:24;4.25;;;2.03;;
23952;SDS011;12163;49.316;6.092;2023-05-19T10:52:52;9.45;;;2.08;;
23952;SDS011;12163;49.316;6.092;2023-05-19T10:58:06;6.70;;;2.45;;
23952;SDS011;12163;49.316;6.092;2023-05-19T11:00:32;13.30;;;2.55;;
23952;SDS011;12163;49.316;6.092;2023-05-19T11:03:11;8.75;;;2.50;;
23952;SDS011;12163;49.316;6.092;2023-05-19T11:05:38;6.72;;;2.35;;
23952;SDS011;12163;49.316;6.092;2023-05-19T11:08:05;8.93;;;2.63;;
23952;SDS011;12163;49.316;6.092;2023-05-19T11:10:37;8.00;;;2.58;;
23952;SDS011;12163;49.316;6.092;2023-05-19T11:13:04;7.28;;;2.20;;
23952;SDS011;12163;49.316;6.092;2023-05-19T11:15:34;6.60;;;2.22;;
23952;SDS011;12163;49.316;6.092;2023-05-19T11:18:03;9.63;;;3.00;;
23952;SDS011;12163;49.316;6.092;2023-05-19T11:20:30;8.70;;;2.40;;
23952;SDS011;12163;49.316;6.092;2023-05-19T11:23:13;8.52;;;3.05;;
23952;SDS011;12163;49.316;6.092;2023-05-19T11:28:18;7.10;;;2.15;;
23952;SDS011;12163;49.316;6.092;2023-05-19T11:30:46;10.82;;;2.38;;
23952;SDS011;12163;49.316;6.092;2023-05-19T11:33:16;6.68;;;2.30;;
23952;SDS011;12163;49.316;6.092;2023-05-19T11:35:45;9.55;;;2.50;;
23952;SDS011;12163;49.316;6.092;2023-05-19T11:38:12;13.32;;;2.38;;
23952;SDS011;12163;49.316;6.092;2023-05-19T11:40:40;6.50;;;2.20;;
23952;SDS011;12163;49.316;6.092;2023-05-19T11:43:07;6.57;;;2.10;;
23952;SDS011;12163;49.316;6.092;2023-05-19T11:45:33;7.32;;;2.25;;
23952;SDS011;12163;49.316;6.092;2023-05-19T11:48:01;7.75;;;2.15;;
23952;SDS011;12163;49.316;6.092;2023-05-19T11:50:30;7.32;;;2.25;;
23952;SDS011;12163;49.316;6.092;2023-05-19T11:52:58;7.75;;;2.60;;
23952;SDS011;12163;49.316;6.092;2023-05-19T11:55:25;10.68;;;2.20;;
23952;SDS011;12163;49.316;6.092;2023-05-19T12:00:27;7.78;;;2.22;;
23952;SDS011;12163;49.316;6.092;2023-05-19T12:02:54;7.63;;;2.15;;
23952;SDS011;12163;49.316;6.092;2023-05-19T12:05:22;8.32;;;2.25;;
23952;SDS011;12163;49.316;6.092;2023-05-19T12:07:49;9.50;;;2.10;;
23952;SDS011;12163;49.316;6.092;2023-05-19T12:10:21;9.43;;;2.60;;
23952;SDS011;12163;49.316;6.092;2023-05-19T12:12:49;7.83;;;2.23;;
23952;SDS011;12163;49.316;6.092;2023-05-19T12:15:19;5.57;;;1.83;;
23952;SDS011;12163;49.316;6.092;2023-05-19T12:17:50;9.07;;;2.35;;
23952;SDS011;12163;49.316;6.092;2023-05-19T12:20:18;10.38;;;2.60;;
23952;SDS011;12163;49.316;6.092;2023-05-19T12:22:45;7.88;;;2.28;;
23952;SDS011;12163;49.316;6.092;2023-05-19T12:25:12;7.45;;;2.55;;
23952;SDS011;12163;49.316;6.092;2023-05-19T12:27:39;9.55;;;1.98;;
23952;SDS011;12163;49.316;6.092;2023-05-19T12:30:08;9.95;;;2.13;;
23952;SDS011;12163;49.316;6.092;2023-05-19T12:32:35;6.55;;;2.08;;
23952;SDS011;12163;49.316;6.092;2023-05-19T12:35:02;6.28;;;1.95;;
23952;SDS011;12163;49.316;6.092;2023-05-19T12:37:32;4.88;;;1.90;;
23952;SDS011;12163;49.316;6.092;2023-05-19T12:40:00;5.20;;;2.10;;
23952;SDS011;12163;49.316;6.092;2023-05-19T12:42:27;11.43;;;2.22;;
23952;SDS011;12163;49.316;6.092;2023-05-19T12:44:57;9.05;;;2.40;;
23952;SDS011;12163;49.316;6.092;2023-05-19T12:47:30;4.82;;;2.30;;
23952;SDS011;12163;49.316;6.092;2023-05-19T12:50:00;5.50;;;2.08;;
23952;SDS011;12163;49.316;6.092;2023-05-19T12:52:29;9.73;;;2.63;;
23952;SDS011;12163;49.316;6.092;2023-05-19T12:54:59;7.53;;;1.88;;
23952;SDS011;12163;49.316;6.092;2023-05-19T12:57:27;12.02;;;3.20;;
23952;SDS011;12163;49.316;6.092;2023-05-19T13:00:04;6.45;;;2.20;;
23952;SDS011;12163;49.316;6.092;2023-05-19T13:02:32;8.68;;;2.45;;
23952;SDS011;12163;49.316;6.092;2023-05-19T13:04:59;9.88;;;2.40;;
23952;SDS011;12163;49.316;6.092;2023-05-19T13:07:26;7.25;;;2.38;;
23952;SDS011;12163;49.316;6.092;2023-05-19T13:09:52;7.68;;;1.88;;
23952;SDS011;12163;49.316;6.092;2023-05-19T13:12:19;7.25;;;2.47;;
23952;SDS011;12163;49.316;6.092;2023-05-19T13:14:46;6.82;;;2.13;;
23952;SDS011;12163;49.316;6.092;2023-05-19T13:17:12;8.30;;;2.28;;
23952;SDS011;12163;49.316;6.092;2023-05-19T13:19:38;12.02;;;2.28;;
23952;SDS011;12163;49.316;6.092;2023-05-19T13:22:05;8.98;;;2.25;;
23952;SDS011;12163;49.316;6.092;2023-05-19T13:24:32;7.65;;;2.45;;
23952;SDS011;12163;49.316;6.092;2023-05-19T13:26:58;5.57;;;1.83;;
23952;SDS011;12163;49.316;6.092;2023-05-19T13:29:25;5.68;;;1.88;;
23952;SDS011;12163;49.316;6.092;2023-05-19T13:31:53;6.25;;;2.40;;
23952;SDS011;12163;49.316;6.092;2023-05-19T13:34:19;6.88;;;2.20;;
23952;SDS011;12163;49.316;6.092;2023-05-19T13:36:46;5.45;;;1.90;;
23952;SDS011;12163;49.316;6.092;2023-05-19T13:39:14;7.72;;;2.40;;
23952;SDS011;12163;49.316;6.092;2023-05-19T13:41:40;7.78;;;2.17;;
23952;SDS011;12163;49.316;6.092;2023-05-19T13:44:07;10.43;;;2.20;;
23952;SDS011;12163;49.316;6.092;2023-05-19T13:46:33;6.45;;;2.00;;
23952;SDS011;12163;49.316;6.092;2023-05-19T13:49:11;8.18;;;2.25;;
23952;SDS011;12163;49.316;6.092;2023-05-19T13:51:39;9.50;;;1.80;;
23952;SDS011;12163;49.316;6.092;2023-05-19T13:54:05;5.95;;;2.03;;
23952;SDS011;12163;49.316;6.092;2023-05-19T13:56:31;7.20;;;2.05;;
23952;SDS011;12163;49.316;6.092;2023-05-19T13:58:58;7.25;;;2.35;;
23952;SDS011;12163;49.316;6.092;2023-05-19T14:01:24;5.63;;;2.10;;
23952;SDS011;12163;49.316;6.092;2023-05-19T14:03:51;10.63;;;2.45;;
23952;SDS011;12163;49.316;6.092;2023-05-19T14:06:18;7.22;;;2.13;;
23952;SDS011;12163;49.316;6.092;2023-05-19T14:08:45;6.85;;;2.08;;
23952;SDS011;12163;49.316;6.092;2023-05-19T14:11:18;6.82;;;2.25;;
23952;SDS011;12163;49.316;6.092;2023-05-19T14:13:46;7.70;;;2.50;;
23952;SDS011;12163;49.316;6.092;2023-05-19T14:16:15;6.45;;;2.15;;
23952;SDS011;12163;49.316;6.092;2023-05-19T14:18:42;9.95;;;2.22;;
23952;SDS011;12163;49.316;6.092;2023-05-19T14:21:09;6.68;;;2.10;;
23952;SDS011;12163;49.316;6.092;2023-05-19T14:23:35;6.35;;;2.22;;
23952;SDS011;12163;49.316;6.092;2023-05-19T14:26:02;5.55;;;2.20;;
23952;SDS011;12163;49.316;6.092;2023-05-19T14:28:28;8.38;;;2.15;;
23952;SDS011;12163;49.316;6.092;2023-05-19T14:30:55;4.75;;;1.90;;
23952;SDS011;12163;49.316;6.092;2023-05-19T14:33:21;8.65;;;2.25;;
23952;SDS011;12163;49.316;6.092;2023-05-19T14:35:48;6.10;;;1.83;;
23952;SDS011;12163;49.316;6.092;2023-05-19T14:38:14;7.85;;;2.15;;
23952;SDS011;12163;49.316;6.092;2023-05-19T14:40:41;9.43;;;2.47;;
23952;SDS011;12163;49.316;6.092;2023-05-19T14:43:08;6.30;;;2.15;;
23952;SDS011;12163;49.316;6.092;2023-05-19T14:45:34;7.78;;;2.15;;
23952;SDS011;12163;49.316;6.092;2023-05-19T14:48:01;7.63;;;2.17;;
23952;SDS011;12163;49.316;6.092;2023-05-19T14:50:27;5.65;;;1.92;;
23952;SDS011;12163;49.316;6.092;2023-05-19T14:52:56;7.03;;;2.05;;
23952;SDS011;12163;49.316;6.092;2023-05-19T14:55:23;7.85;;;2.33;;
23952;SDS011;12163;49.316;6.092;2023-05-19T14:57:49;4.55;;;1.85;;
23952;SDS011;12163;49.316;6.092;2023-05-19T15:00:16;7.13;;;2.13;;
23952;SDS011;12163;49.316;6.092;2023-05-19T15:02:43;6.05;;;1.98;;
23952;SDS011;12163;49.316;6.092;2023-05-19T15:05:09;13.60;;;2.10;;
23952;SDS011;12163;49.316;6.092;2023-05-19T15:07:36;8.20;;;2.22;;
23952;SDS011;12163;49.316;6.092;2023-05-19T15:10:03;5.78;;;2.08;;
23952;SDS011;12163;49.316;6.092;2023-05-19T15:12:30;9.73;;;1.73;;